createdAt,value
2018-01-03T16:06:45.252Z,984.00
2018-01-03T16:07:45.088Z,1072.00
2018-01-03T16:08:45.084Z,876.00
2018-01-03T16:09:45.079Z,788.00
2018-01-03T16:10:45.069Z,776.00
2018-01-03T16:11:45.069Z,916.00
2018-01-03T16:12:45.064Z,1216.00
2018-01-03T16:13:45.062Z,1720.00
2018-01-03T16:14:45.057Z,1628.00
2018-01-03T16:15:45.054Z,1492.00
2018-01-03T16:16:45.055Z,1436.00
2018-01-03T16:17:45.043Z,1868.00
2018-01-03T16:18:45.042Z,1516.00
2018-01-03T16:19:45.044Z,1324.00
2018-01-03T16:20:45.047Z,1128.00
2018-01-03T16:21:45.035Z,968.00
2018-01-03T16:22:45.038Z,952.00
2018-01-03T16:23:45.037Z,1024.00
2018-01-03T16:24:45.034Z,940.00
2018-01-03T16:25:45.032Z,1020.00
2018-01-03T16:26:45.031Z,1184.00
2018-01-03T16:27:45.030Z,812.00
2018-01-03T16:28:45.028Z,624.00
2018-01-03T16:29:45.030Z,552.00
2018-01-03T16:30:45.026Z,596.00
2018-01-03T16:31:45.025Z,576.00
2018-01-03T16:32:45.023Z,476.00
2018-01-03T16:33:45.022Z,544.00
2018-01-03T16:34:45.017Z,608.00
2018-01-03T16:35:45.021Z,436.00
2018-01-03T16:36:45.019Z,344.00
2018-01-03T16:37:45.018Z,296.00
2018-01-03T16:38:45.017Z,264.00
2018-01-03T16:39:45.017Z,248.00
2018-01-03T16:40:45.015Z,240.00
2018-01-03T16:41:45.014Z,244.00
2018-01-03T16:42:45.013Z,268.00
2018-01-03T16:43:45.012Z,260.00
2018-01-03T16:44:45.010Z,292.00
2018-01-03T16:45:45.009Z,344.00
2018-01-03T16:46:45.010Z,368.00
2018-01-03T16:47:45.007Z,364.00
2018-01-03T16:48:45.006Z,412.00
2018-01-03T16:49:44.999Z,436.00
2018-01-03T16:50:45.008Z,488.00
2018-01-03T16:51:45.002Z,536.00
2018-01-03T16:52:44.995Z,528.00
2018-01-03T16:53:44.998Z,516.00
2018-01-03T16:54:44.997Z,528.00
2018-01-03T16:55:44.992Z,536.00
2018-01-03T16:56:44.994Z,508.00
2018-01-03T16:57:44.993Z,460.00
2018-01-03T16:58:44.991Z,368.00
2018-01-03T16:59:44.986Z,308.00
2018-01-03T17:00:44.987Z,272.00
2018-01-03T17:01:44.986Z,292.00
2018-01-03T17:02:44.981Z,336.00
2018-01-03T17:03:44.984Z,392.00
2018-01-03T17:04:44.981Z,484.00
2018-01-03T17:05:44.980Z,560.00
2018-01-03T17:06:45.078Z,600.00
2018-01-03T17:07:44.977Z,548.00
2018-01-03T17:08:44.975Z,440.00
2018-01-03T17:09:44.973Z,392.00
2018-01-03T17:10:44.973Z,380.00
2018-01-03T17:11:44.969Z,428.00
2018-01-03T17:12:44.967Z,456.00
2018-01-03T17:13:44.961Z,428.00
2018-01-03T17:14:44.964Z,392.00
2018-01-03T17:15:44.958Z,360.00
2018-01-03T17:16:44.955Z,340.00
2018-01-03T17:17:44.958Z,288.00
2018-01-03T17:18:44.956Z,236.00
2018-01-03T17:19:44.953Z,204.00
2018-01-03T17:20:44.951Z,192.00
2018-01-03T17:21:44.949Z,200.00
2018-01-03T17:22:44.947Z,232.00
2018-01-03T17:23:44.945Z,260.00
2018-01-03T17:24:44.938Z,292.00
2018-01-03T17:25:44.935Z,336.00
2018-01-03T17:26:44.933Z,360.00
2018-01-03T17:27:44.940Z,412.00
2018-01-03T17:28:44.932Z,472.00
2018-01-03T17:29:44.929Z,492.00
2018-01-03T17:30:45.032Z,500.00
2018-01-03T17:31:44.924Z,512.00
2018-01-03T17:32:44.921Z,564.00
2018-01-03T17:33:44.918Z,592.00
2018-01-03T17:34:44.912Z,600.00
2018-01-03T17:35:44.910Z,684.00
2018-01-03T17:36:44.902Z,804.00
2018-01-03T17:37:44.900Z,844.00
2018-01-03T17:38:44.905Z,1204.00
2018-01-03T17:39:44.898Z,1168.00
2018-01-03T17:40:44.900Z,760.00
2018-01-03T17:41:44.897Z,624.00
2018-01-03T17:42:44.891Z,600.00
2018-01-03T17:43:44.889Z,580.00
2018-01-03T17:44:44.885Z,480.00
2018-01-03T17:45:44.883Z,380.00
2018-01-03T17:46:44.880Z,380.00
2018-01-03T17:47:44.882Z,392.00
2018-01-03T17:48:44.878Z,388.00
2018-01-03T17:49:44.876Z,344.00
2018-01-03T17:50:44.870Z,304.00
2018-01-03T17:51:44.871Z,272.00
2018-01-03T17:52:44.869Z,236.00
2018-01-03T17:53:44.865Z,240.00
2018-01-03T17:54:45.898Z,240.00
2018-01-03T17:55:44.857Z,224.00
2018-01-03T17:56:44.856Z,212.00
2018-01-03T17:57:44.849Z,200.00
2018-01-03T17:58:44.852Z,172.00
2018-01-03T17:59:44.843Z,152.00
2018-01-03T18:00:44.839Z,148.00
2018-01-03T18:01:44.832Z,164.00
2018-01-03T18:02:44.834Z,216.00
2018-01-03T18:03:46.036Z,272.00
2018-01-03T18:04:44.829Z,292.00
2018-01-03T18:05:44.824Z,292.00
2018-01-03T18:06:44.820Z,300.00
2018-01-03T18:07:44.812Z,328.00
2018-01-03T18:08:44.808Z,344.00
2018-01-03T18:09:44.805Z,356.00
2018-01-03T18:10:44.802Z,364.00
2018-01-03T18:11:44.803Z,392.00
2018-01-03T18:12:44.805Z,444.00
2018-01-03T18:13:44.795Z,524.00
2018-01-03T18:14:44.792Z,596.00
2018-01-03T18:15:44.788Z,660.00
2018-01-03T18:16:44.786Z,740.00
2018-01-03T18:17:44.780Z,828.00
2018-01-03T18:18:44.776Z,1244.00
2018-01-03T18:19:44.773Z,1160.00
2018-01-03T18:20:44.768Z,1084.00
2018-01-03T18:21:44.765Z,1128.00
2018-01-03T18:22:44.762Z,1100.00
2018-01-03T18:23:44.759Z,968.00
2018-01-03T18:24:44.750Z,1180.00
2018-01-03T18:25:44.747Z,1168.00
2018-01-03T18:26:44.748Z,960.00
2018-01-03T18:27:44.746Z,864.00
2018-01-03T18:28:44.741Z,840.00
2018-01-03T18:29:44.734Z,780.00
2018-01-03T18:30:44.835Z,724.00
2018-01-03T18:31:44.728Z,684.00
2018-01-03T18:32:44.729Z,700.00
2018-01-03T18:33:44.721Z,732.00
2018-01-03T18:34:44.724Z,740.00
2018-01-03T18:35:44.720Z,716.00
2018-01-03T18:36:44.714Z,680.00
2018-01-03T18:37:44.714Z,616.00
2018-01-03T18:38:44.711Z,588.00
2018-01-03T18:39:44.704Z,568.00
2018-01-03T18:40:44.704Z,612.00
2018-01-03T18:41:44.697Z,720.00
2018-01-03T18:42:44.699Z,860.00
2018-01-03T18:43:44.696Z,896.00
2018-01-03T18:44:44.689Z,836.00
2018-01-03T18:45:44.692Z,768.00
2018-01-03T18:46:44.684Z,752.00
2018-01-03T18:47:44.682Z,764.00
2018-01-03T18:48:44.684Z,816.00
2018-01-03T18:49:44.680Z,856.00
2018-01-03T18:50:44.679Z,1440.00
2018-01-03T18:51:44.676Z,1372.00
2018-01-03T18:52:44.672Z,884.00
2018-01-03T18:53:44.666Z,840.00
2018-01-03T18:54:44.668Z,832.00
2018-01-03T18:55:44.661Z,824.00
2018-01-03T18:56:44.662Z,836.00
2018-01-03T18:57:44.660Z,824.00
2018-01-03T18:58:44.657Z,828.00
2018-01-03T18:59:44.655Z,852.00
2018-01-03T19:00:44.651Z,888.00
2018-01-03T19:01:44.655Z,872.00
2018-01-03T19:02:44.647Z,836.00
2018-01-03T19:03:44.645Z,832.00
2018-01-03T19:04:44.642Z,868.00
2018-01-03T19:05:44.643Z,912.00
2018-01-03T19:06:44.633Z,1232.00
2018-01-03T19:07:44.636Z,1512.00
2018-01-03T19:08:44.633Z,1076.00
2018-01-03T19:09:44.630Z,572.00
2018-01-03T19:10:44.629Z,408.00
2018-01-03T19:11:44.621Z,348.00
2018-01-03T19:12:44.623Z,312.00
2018-01-03T19:13:44.621Z,332.00
2018-01-03T19:14:44.615Z,408.00
2018-01-03T19:15:44.616Z,432.00
2018-01-03T19:16:44.615Z,424.00
2018-01-03T19:17:44.612Z,408.00
2018-01-03T19:18:44.606Z,368.00
2018-01-03T19:19:44.604Z,348.00
2018-01-03T19:20:44.601Z,340.00
2018-01-03T19:21:44.604Z,336.00
2018-01-03T19:22:44.597Z,320.00
2018-01-03T19:23:44.599Z,268.00
2018-01-03T19:24:44.591Z,220.00
2018-01-03T19:25:44.589Z,220.00
2018-01-03T19:26:44.593Z,248.00
2018-01-03T19:27:44.585Z,284.00
2018-01-03T19:28:44.585Z,292.00
2018-01-03T19:29:44.579Z,280.00
2018-01-03T19:30:44.576Z,244.00
2018-01-03T19:31:44.578Z,236.00
2018-01-03T19:32:44.570Z,248.00
2018-01-03T19:33:44.567Z,264.00
2018-01-03T19:34:44.565Z,280.00
2018-01-03T19:35:44.562Z,284.00
2018-01-03T19:36:44.564Z,284.00
2018-01-03T19:37:44.560Z,276.00
2018-01-03T19:38:44.553Z,256.00
2018-01-03T19:39:44.550Z,232.00
2018-01-03T19:40:44.550Z,200.00
2018-01-03T19:41:44.544Z,172.00
2018-01-03T19:42:44.546Z,152.00
2018-01-03T19:43:44.543Z,140.00
2018-01-03T19:44:44.538Z,116.00
2018-01-03T19:45:44.535Z,92.00
2018-01-03T19:46:44.528Z,72.00
2018-01-03T19:47:44.525Z,56.00
2018-01-03T19:48:44.520Z,48.00
2018-01-03T19:49:44.517Z,56.00
2018-01-03T19:50:44.514Z,52.00
2018-01-03T19:51:44.516Z,48.00
2018-01-03T19:52:44.506Z,52.00
2018-01-03T19:53:44.502Z,56.00
2018-01-03T19:54:44.504Z,76.00
2018-01-03T19:55:44.500Z,88.00
2018-01-03T19:56:44.497Z,100.00
2018-01-03T19:57:44.492Z,104.00
2018-01-03T19:58:44.483Z,108.00
2018-01-03T19:59:44.480Z,124.00
2018-01-03T20:00:44.480Z,144.00
2018-01-03T20:01:44.476Z,160.00
2018-01-03T20:02:44.468Z,184.00
2018-01-03T20:03:44.464Z,200.00
2018-01-03T20:04:44.464Z,216.00
2018-01-03T20:05:44.459Z,220.00
2018-01-03T20:06:44.456Z,204.00
2018-01-03T20:07:44.447Z,192.00
2018-01-03T20:08:44.442Z,200.00
2018-01-03T20:09:44.442Z,248.00
2018-01-03T20:10:44.434Z,264.00
2018-01-03T20:11:44.430Z,280.00
2018-01-03T20:12:44.425Z,284.00
2018-01-03T20:13:44.424Z,288.00
2018-01-03T20:14:44.416Z,284.00
2018-01-03T20:15:44.413Z,268.00
2018-01-03T20:16:44.407Z,256.00
2018-01-03T20:17:44.404Z,244.00
2018-01-03T20:18:44.399Z,236.00
2018-01-03T20:19:44.399Z,228.00
2018-01-03T20:20:44.543Z,224.00
2018-01-03T20:21:44.390Z,224.00
2018-01-03T20:22:44.384Z,224.00
2018-01-03T20:23:44.384Z,224.00
2018-01-03T20:24:44.378Z,220.00
2018-01-03T20:25:44.370Z,228.00
2018-01-03T20:26:44.370Z,232.00
2018-01-03T20:27:44.366Z,240.00
2018-01-03T20:28:44.357Z,240.00
2018-01-03T20:29:44.352Z,240.00
2018-01-03T20:30:44.348Z,228.00
2018-01-03T20:31:44.345Z,244.00
2018-01-03T20:32:44.343Z,248.00
2018-01-03T20:33:44.339Z,256.00
2018-01-03T20:34:44.327Z,252.00
2018-01-03T20:35:44.331Z,272.00
2018-01-03T20:36:44.326Z,296.00
2018-01-03T20:37:44.314Z,312.00
2018-01-03T20:38:44.316Z,328.00
2018-01-03T20:39:44.309Z,336.00
2018-01-03T20:40:44.301Z,316.00
2018-01-03T20:41:44.300Z,336.00
2018-01-03T20:42:44.300Z,372.00
2018-01-03T20:43:44.296Z,384.00
2018-01-03T20:44:44.290Z,404.00
2018-01-03T20:45:44.284Z,388.00
2018-01-03T20:46:44.279Z,456.00
2018-01-03T20:47:44.278Z,408.00
2018-01-03T20:48:44.266Z,360.00
2018-01-03T20:49:44.270Z,304.00
2018-01-03T20:50:44.362Z,252.00
2018-01-03T20:51:44.258Z,228.00
2018-01-03T20:52:44.256Z,208.00
2018-01-03T20:53:44.252Z,196.00
2018-01-03T20:54:44.252Z,180.00
2018-01-03T20:55:44.240Z,156.00
2018-01-03T20:56:44.235Z,128.00
2018-01-03T20:57:44.227Z,120.00
2018-01-03T20:58:44.226Z,108.00
2018-01-03T20:59:44.222Z,92.00
2018-01-03T21:00:44.221Z,76.00
2018-01-03T21:01:44.217Z,60.00
2018-01-03T21:02:44.213Z,56.00
2018-01-03T21:03:44.204Z,44.00
2018-01-03T21:04:44.204Z,40.00
2018-01-03T21:05:44.199Z,40.00
2018-01-03T21:06:44.198Z,36.00
2018-01-03T21:07:44.186Z,32.00
2018-01-03T21:08:44.186Z,44.00
2018-01-03T21:09:44.177Z,72.00
2018-01-03T21:10:44.178Z,104.00
2018-01-03T21:11:44.170Z,80.00
2018-01-03T21:12:44.168Z,48.00
2018-01-03T21:13:44.159Z,48.00
2018-01-03T21:14:44.155Z,48.00
2018-01-03T21:15:44.150Z,40.00
2018-01-03T21:16:44.150Z,44.00
2018-01-03T21:17:44.141Z,48.00
2018-01-03T21:18:44.137Z,44.00
2018-01-03T21:19:44.136Z,44.00
2018-01-03T21:20:44.127Z,40.00
2018-01-03T21:21:44.123Z,40.00
2018-01-03T21:22:44.123Z,36.00
2018-01-03T21:23:44.118Z,44.00
2018-01-03T21:24:44.113Z,44.00
2018-01-03T21:25:44.105Z,44.00
2018-01-03T21:26:44.104Z,48.00
2018-01-03T21:27:44.100Z,48.00
2018-01-03T21:28:44.097Z,48.00
2018-01-03T21:29:44.086Z,44.00
2018-01-03T21:30:44.082Z,48.00
2018-01-03T21:31:44.084Z,48.00
2018-01-03T21:32:44.073Z,52.00
2018-01-03T21:33:44.068Z,56.00
2018-01-03T21:34:44.065Z,52.00
2018-01-03T21:35:44.055Z,48.00
2018-01-03T21:36:44.054Z,40.00
2018-01-03T21:37:44.049Z,44.00
2018-01-03T21:38:44.041Z,40.00
2018-01-03T21:39:44.036Z,36.00
2018-01-03T21:40:44.035Z,36.00
2018-01-03T21:41:44.026Z,40.00
2018-01-03T21:42:44.028Z,36.00
2018-01-03T21:43:44.017Z,32.00
2018-01-03T21:44:44.012Z,28.00
2018-01-03T21:45:44.011Z,28.00
2018-01-03T21:46:44.007Z,28.00
2018-01-03T21:47:44.003Z,28.00
2018-01-03T21:48:43.996Z,28.00
2018-01-03T21:49:43.992Z,28.00
2018-01-03T21:50:43.987Z,24.00
2018-01-03T21:51:43.983Z,20.00
2018-01-03T21:52:43.977Z,20.00
2018-01-03T21:53:43.973Z,16.00
2018-01-03T21:54:43.968Z,16.00
2018-01-03T21:55:43.963Z,12.00
2018-01-03T21:56:43.953Z,12.00
2018-01-03T21:57:43.948Z,8.00
2018-01-03T21:58:43.944Z,4.00
2018-01-03T21:59:43.943Z,4.00
2018-01-03T22:00:43.941Z,4.00
2018-01-03T22:01:43.933Z,4.00
2018-01-03T22:02:43.925Z,0.00
2018-01-03T22:03:43.920Z,4.00
2018-01-03T22:04:43.898Z,4.00
2018-01-03T22:05:43.893Z,8.00
2018-01-03T22:06:43.904Z,8.00
2018-01-03T22:07:43.884Z,8.00
2018-01-03T22:08:43.882Z,8.00
2018-01-03T22:09:43.873Z,8.00
2018-01-03T22:10:43.890Z,8.00
2018-01-03T22:11:43.868Z,8.00
2018-01-03T22:12:43.873Z,8.00
2018-01-03T22:13:43.857Z,8.00
2018-01-03T22:14:43.868Z,8.00
2018-01-03T22:15:43.859Z,8.00
2018-01-03T22:16:43.838Z,8.00
2018-01-03T22:17:43.837Z,4.00
2018-01-03T22:18:43.828Z,4.00
2018-01-03T22:19:43.824Z,4.00
2018-01-03T22:20:43.832Z,4.00
2018-01-03T22:21:43.815Z,4.00
2018-01-03T22:22:43.812Z,4.00
2018-01-03T22:23:43.822Z,4.00
2018-01-03T22:24:43.817Z,4.00
2018-01-03T22:25:43.796Z,4.00
2018-01-03T22:26:43.802Z,4.00
2018-01-03T22:27:43.802Z,4.00
2018-01-03T22:28:43.780Z,4.00
2018-01-03T22:29:43.791Z,4.00
2018-01-03T22:30:43.767Z,4.00
2018-01-03T22:31:43.766Z,4.00
2018-01-03T22:32:43.760Z,4.00
2018-01-03T22:33:43.766Z,4.00
2018-01-03T22:34:43.796Z,4.00
2018-01-03T22:35:43.746Z,4.00
2018-01-03T22:36:43.751Z,4.00
2018-01-03T22:37:43.734Z,4.00
2018-01-03T22:38:43.745Z,4.00
2018-01-03T22:39:43.740Z,4.00
2018-01-03T22:40:43.730Z,4.00
2018-01-03T22:41:43.733Z,4.00
2018-01-03T22:42:43.720Z,4.00
2018-01-03T22:43:43.724Z,4.00
2018-01-03T22:44:43.717Z,4.00
2018-01-03T22:45:43.704Z,4.00
2018-01-03T22:46:43.704Z,4.00
2018-01-03T22:47:43.698Z,4.00
2018-01-03T22:48:43.688Z,4.00
2018-01-03T22:49:43.691Z,4.00
2018-01-03T22:50:43.783Z,4.00
2018-01-03T22:51:43.674Z,4.00
2018-01-03T22:52:43.672Z,4.00
2018-01-03T22:53:43.664Z,4.00
2018-01-03T22:54:43.660Z,4.00
2018-01-03T22:55:43.659Z,4.00
2018-01-03T22:56:43.651Z,4.00
2018-01-03T22:57:43.646Z,4.00
2018-01-03T22:58:43.637Z,4.00
2018-01-03T22:59:43.636Z,4.00
2018-01-03T23:00:43.625Z,4.00
2018-01-03T23:01:43.624Z,4.00
2018-01-03T23:02:43.619Z,4.00
2018-01-03T23:03:43.615Z,4.00
2018-01-03T23:04:43.610Z,4.00
2018-01-03T23:05:43.608Z,4.00
2018-01-03T23:06:43.594Z,4.00
2018-01-03T23:07:43.597Z,4.00
2018-01-03T23:08:43.587Z,4.00
2018-01-03T23:09:43.582Z,4.00
2018-01-03T23:10:43.581Z,4.00
2018-01-03T23:11:43.572Z,4.00
2018-01-03T23:12:43.567Z,4.00
2018-01-03T23:13:43.561Z,4.00
2018-01-03T23:14:43.552Z,4.00
2018-01-03T23:15:43.555Z,4.00
2018-01-03T23:16:43.544Z,4.00
2018-01-03T23:17:43.535Z,4.00
2018-01-03T23:18:43.549Z,4.00
2018-01-03T23:19:43.525Z,4.00
2018-01-03T23:20:43.528Z,4.00
2018-01-03T23:21:43.513Z,4.00
2018-01-03T23:22:43.509Z,4.00
2018-01-03T23:23:43.513Z,4.00
2018-01-03T23:24:43.503Z,4.00
2018-01-03T23:25:43.496Z,4.00
2018-01-03T23:26:43.491Z,4.00
2018-01-03T23:27:43.490Z,4.00
2018-01-03T23:28:43.480Z,4.00
2018-01-03T23:29:43.474Z,4.00
2018-01-03T23:30:43.469Z,4.00
2018-01-03T23:31:43.465Z,4.00
2018-01-03T23:32:43.462Z,4.00
2018-01-03T23:33:43.448Z,4.00
2018-01-03T23:34:43.446Z,4.00
2018-01-03T23:35:43.445Z,4.00
2018-01-03T23:36:43.435Z,4.00
2018-01-03T23:37:43.436Z,4.00
2018-01-03T23:38:43.431Z,4.00
2018-01-03T23:39:43.424Z,4.00
2018-01-03T23:40:43.413Z,4.00
2018-01-03T23:41:43.408Z,4.00
2018-01-03T23:42:43.401Z,4.00
2018-01-03T23:43:43.401Z,4.00
2018-01-03T23:44:43.391Z,4.00
2018-01-03T23:45:43.382Z,4.00
2018-01-03T23:46:43.385Z,4.00
2018-01-03T23:47:43.376Z,4.00
2018-01-03T23:48:43.373Z,4.00
2018-01-03T23:49:43.364Z,4.00
2018-01-03T23:50:43.359Z,4.00
2018-01-03T23:51:43.354Z,4.00
2018-01-03T23:52:43.343Z,4.00
2018-01-03T23:53:43.338Z,4.00
2018-01-03T23:54:43.338Z,4.00
2018-01-03T23:55:43.328Z,4.00
2018-01-03T23:56:43.326Z,4.00
2018-01-03T23:57:43.320Z,4.00
2018-01-03T23:58:43.319Z,4.00
2018-01-03T23:59:43.310Z,4.00
